createdAt,value
2023-02-03T00:02:25.967Z,66.13
2023-02-03T00:04:53.712Z,66.00
2023-02-03T00:07:21.417Z,67.77
2023-02-03T00:09:49.249Z,62.27
2023-02-03T00:12:16.959Z,68.03
2023-02-03T00:14:44.684Z,67.43
2023-02-03T00:17:12.314Z,66.37
2023-02-03T00:19:41.309Z,64.77
2023-02-03T00:22:09.009Z,65.20
2023-02-03T00:24:36.720Z,63.47
2023-02-03T00:27:04.476Z,62.57
2023-02-03T00:29:32.239Z,65.03
2023-02-03T00:32:00.064Z,72.33
2023-02-03T00:34:30.080Z,72.53
2023-02-03T00:39:56.650Z,60.27
2023-02-03T00:42:24.337Z,61.23
2023-02-03T00:44:51.974Z,68.67
2023-02-03T00:47:19.664Z,66.80
2023-02-03T00:49:47.378Z,65.67
2023-02-03T00:52:16.445Z,61.93
2023-02-03T00:54:44.203Z,61.67
2023-02-03T00:57:11.853Z,66.00
2023-02-03T00:59:39.485Z,60.37
2023-02-03T01:02:07.203Z,60.87
2023-02-03T01:04:34.879Z,61.13
2023-02-03T01:07:02.743Z,60.90
2023-02-03T01:09:34.497Z,63.67
2023-02-03T01:12:02.351Z,67.07
2023-02-03T01:14:30.215Z,66.43
2023-02-03T01:16:58.011Z,68.30
2023-02-03T01:19:25.845Z,65.53
2023-02-03T01:21:53.459Z,63.97
2023-02-03T01:24:21.171Z,62.33
2023-02-03T01:26:50.166Z,65.47
2023-02-03T01:29:17.907Z,63.00
2023-02-03T01:31:45.669Z,62.50
2023-02-03T01:34:16.374Z,64.90
2023-02-03T01:36:44.053Z,66.83
2023-02-03T01:39:12.094Z,63.90
2023-02-03T01:41:40.695Z,65.17
2023-02-03T01:44:37.356Z,62.30
2023-02-03T01:47:05.502Z,66.97
2023-02-03T01:49:36.583Z,67.07
2023-02-03T01:52:04.994Z,64.30
2023-02-03T01:54:35.066Z,61.27
2023-02-03T01:57:05.104Z,61.13
2023-02-03T01:59:33.233Z,61.47
2023-02-03T02:02:02.797Z,59.17
2023-02-03T02:04:37.112Z,61.67
2023-02-03T02:07:05.292Z,61.93
2023-02-03T02:09:33.148Z,60.80
2023-02-03T02:12:01.742Z,57.83
2023-02-03T02:14:29.792Z,58.57
2023-02-03T02:17:03.284Z,58.57
2023-02-03T02:19:59.812Z,57.57
2023-02-03T02:22:31.822Z,55.90
2023-02-03T02:25:16.080Z,59.60
2023-02-03T02:28:00.455Z,56.33
2023-02-03T02:31:05.213Z,56.97
2023-02-03T02:33:39.000Z,52.40
2023-02-03T02:36:11.648Z,55.53
2023-02-03T02:38:46.942Z,56.00
2023-02-03T02:41:18.659Z,58.90
2023-02-03T02:43:49.309Z,59.87
2023-02-03T02:46:20.587Z,60.83
2023-02-03T02:48:54.575Z,58.33
2023-02-03T02:51:23.542Z,57.17
2023-02-03T02:53:55.457Z,58.20
2023-02-03T02:56:25.375Z,56.73
2023-02-03T02:58:54.820Z,53.10
2023-02-03T03:01:22.640Z,55.33
2023-02-03T03:03:52.112Z,55.37
2023-02-03T03:06:23.281Z,54.33
2023-02-03T03:08:55.946Z,55.50
2023-02-03T03:11:24.554Z,52.50
2023-02-03T03:13:54.103Z,54.73
2023-02-03T03:16:24.842Z,53.90
2023-02-03T03:18:57.012Z,51.40
2023-02-03T03:21:27.887Z,51.37
2023-02-03T03:23:58.746Z,51.37
2023-02-03T03:26:29.814Z,52.90
2023-02-03T03:29:05.374Z,54.20
2023-02-03T03:31:33.159Z,50.87
2023-02-03T03:34:02.286Z,49.33
2023-02-03T03:36:31.423Z,49.53
2023-02-03T03:39:04.908Z,51.87
2023-02-03T03:41:39.696Z,52.77
2023-02-03T03:44:12.488Z,50.67
2023-02-03T03:46:43.825Z,52.10
2023-02-03T03:49:13.664Z,51.00
2023-02-03T03:51:44.276Z,51.20
2023-02-03T03:54:15.067Z,51.67
2023-02-03T03:56:46.277Z,50.57
2023-02-03T03:59:15.506Z,50.27
2023-02-03T04:01:43.634Z,50.27
2023-02-03T04:04:13.455Z,49.97
2023-02-03T04:06:41.237Z,49.60
2023-02-03T04:09:09.098Z,48.10
2023-02-03T04:11:54.193Z,49.60
2023-02-03T04:14:21.912Z,48.87
2023-02-03T04:16:49.523Z,49.33
2023-02-03T04:19:18.543Z,49.50
2023-02-03T04:21:46.251Z,47.50
2023-02-03T04:24:14.160Z,45.70
2023-02-03T04:26:41.825Z,48.23
2023-02-03T04:29:09.713Z,49.60
2023-02-03T04:31:38.559Z,49.73
2023-02-03T04:34:06.416Z,48.50
2023-02-03T04:36:35.479Z,50.50
2023-02-03T04:39:03.148Z,48.20
2023-02-03T04:41:30.887Z,49.73
2023-02-03T04:43:58.527Z,52.23
2023-02-03T04:46:26.453Z,52.83
2023-02-03T04:48:54.098Z,52.67
2023-02-03T04:51:21.895Z,54.67
2023-02-03T04:53:50.944Z,55.50
2023-02-03T04:56:19.112Z,57.13
2023-02-03T04:58:46.776Z,55.37
2023-02-03T05:01:14.467Z,55.33
2023-02-03T05:03:42.287Z,55.03
2023-02-03T05:06:09.925Z,54.33
2023-02-03T05:08:37.604Z,54.50
2023-02-03T05:11:06.846Z,55.90
2023-02-03T05:13:34.607Z,55.90
2023-02-03T05:16:02.323Z,53.77
2023-02-03T05:18:30.022Z,54.73
2023-02-03T05:20:57.682Z,52.13
2023-02-03T05:23:25.441Z,55.53
2023-02-03T05:25:53.122Z,53.20
2023-02-03T05:28:22.224Z,50.90
2023-02-03T05:30:49.957Z,52.40
2023-02-03T05:33:17.748Z,51.97
2023-02-03T05:35:45.450Z,54.27
2023-02-03T05:38:13.174Z,52.27
2023-02-03T05:40:58.406Z,55.03
2023-02-03T05:43:28.272Z,54.33
2023-02-03T05:45:55.980Z,52.37
2023-02-03T05:48:23.731Z,52.43
2023-02-03T05:50:51.345Z,58.27
2023-02-03T05:53:19.065Z,60.77
2023-02-03T05:55:46.816Z,60.17
2023-02-03T05:58:14.526Z,62.27
2023-02-03T06:00:43.616Z,64.13
2023-02-03T06:03:11.570Z,63.23
2023-02-03T06:05:41.100Z,62.47
2023-02-03T06:08:09.063Z,62.47
2023-02-03T06:10:36.840Z,60.50
2023-02-03T06:13:10.798Z,61.53
2023-02-03T06:15:38.620Z,62.43
2023-02-03T06:18:08.255Z,59.07
2023-02-03T06:20:36.247Z,57.27
2023-02-03T06:23:03.936Z,60.40
2023-02-03T06:25:33.218Z,61.70
2023-02-03T06:28:01.239Z,57.87
2023-02-03T06:30:29.540Z,54.60
2023-02-03T06:32:57.383Z,54.37
2023-02-03T06:35:26.440Z,56.90
2023-02-03T06:40:35.260Z,54.10
2023-02-03T06:43:03.010Z,53.30
2023-02-03T06:45:30.920Z,52.37
2023-02-03T06:47:58.549Z,52.17
2023-02-03T06:50:27.969Z,56.87
2023-02-03T06:52:55.846Z,54.90
2023-02-03T06:55:23.823Z,54.33
2023-02-03T06:57:51.945Z,53.00
2023-02-03T07:00:20.974Z,53.00
2023-02-03T07:02:54.500Z,53.07
2023-02-03T07:05:22.453Z,53.57
2023-02-03T07:07:52.040Z,50.60
2023-02-03T07:10:19.894Z,51.47
2023-02-03T07:12:48.063Z,51.47
2023-02-03T07:15:16.960Z,54.37
2023-02-03T07:17:46.895Z,56.57
2023-02-03T07:20:14.568Z,54.70
2023-02-03T07:22:43.895Z,54.00
2023-02-03T07:25:15.920Z,55.53
2023-02-03T07:27:45.189Z,56.40
2023-02-03T07:30:14.165Z,53.47
2023-02-03T07:32:41.839Z,52.53
2023-02-03T07:35:09.622Z,52.47
2023-02-03T07:37:37.275Z,50.10
2023-02-03T07:40:05.553Z,49.20
2023-02-03T07:42:34.616Z,48.40
2023-02-03T07:45:02.313Z,48.13
2023-02-03T07:47:30.149Z,47.53
2023-02-03T07:49:58.104Z,45.63
2023-02-03T07:52:25.786Z,44.83
2023-02-03T07:54:54.533Z,44.63
2023-02-03T07:57:22.186Z,43.57
2023-02-03T07:59:51.397Z,43.23
2023-02-03T08:02:19.177Z,43.80
2023-02-03T08:04:46.815Z,42.47
2023-02-03T08:07:14.560Z,40.47
2023-02-03T08:09:42.200Z,40.80
2023-02-03T08:12:09.899Z,42.33
2023-02-03T08:14:37.609Z,45.53
2023-02-03T08:17:06.705Z,43.73
2023-02-03T08:19:35.237Z,43.07
2023-02-03T08:22:02.946Z,41.77
2023-02-03T08:24:30.606Z,41.13
2023-02-03T08:26:58.245Z,38.13
2023-02-03T08:29:25.946Z,36.63
2023-02-03T08:31:54.969Z,37.37
2023-02-03T08:34:28.527Z,35.37
2023-02-03T08:36:56.234Z,34.50
2023-02-03T08:39:24.013Z,31.50
2023-02-03T08:41:51.752Z,31.00
2023-02-03T08:44:19.883Z,30.77
2023-02-03T08:46:50.694Z,29.83
2023-02-03T08:49:18.514Z,27.50
2023-02-03T08:51:49.291Z,26.70
2023-02-03T08:54:16.999Z,25.80
2023-02-03T08:56:44.785Z,26.27
2023-02-03T08:59:13.063Z,24.60
2023-02-03T09:01:41.349Z,24.13
2023-02-03T09:04:10.132Z,23.50
2023-02-03T09:06:38.134Z,23.20
2023-02-03T09:09:07.127Z,23.83
2023-02-03T09:11:34.778Z,24.93
2023-02-03T09:14:02.443Z,24.27
2023-02-03T09:16:30.929Z,26.17
2023-02-03T09:18:58.629Z,24.67
2023-02-03T09:21:35.437Z,24.53
2023-02-03T09:24:13.106Z,25.20
2023-02-03T09:26:40.799Z,25.03
2023-02-03T09:29:09.829Z,25.43
2023-02-03T09:31:37.674Z,25.27
2023-02-03T09:34:05.348Z,25.10
2023-02-03T09:36:33.127Z,23.97
2023-02-03T09:39:00.807Z,25.20
2023-02-03T09:41:42.473Z,26.60
2023-02-03T09:44:13.230Z,25.63
2023-02-03T09:46:43.388Z,25.20
2023-02-03T09:49:15.914Z,23.90
2023-02-03T09:51:46.675Z,24.17
2023-02-03T09:54:19.060Z,24.70
2023-02-03T09:56:52.412Z,22.90
2023-02-03T09:59:20.252Z,23.30
2023-02-03T10:01:54.183Z,24.27
2023-02-03T10:04:30.109Z,23.27
2023-02-03T10:07:04.770Z,23.87
2023-02-03T10:09:41.586Z,23.87
2023-02-03T10:12:24.352Z,24.30
2023-02-03T10:15:04.957Z,23.37
2023-02-03T10:17:35.371Z,24.30
2023-02-03T10:20:06.526Z,24.83
2023-02-03T10:22:37.909Z,25.10
2023-02-03T10:25:08.917Z,23.73
2023-02-03T10:27:38.596Z,22.43
2023-02-03T10:30:16.168Z,22.67
2023-02-03T10:32:43.829Z,24.33
2023-02-03T10:35:13.250Z,24.47
2023-02-03T10:37:44.224Z,25.57
2023-02-03T10:40:13.859Z,25.73
2023-02-03T10:43:01.348Z,23.00
2023-02-03T10:45:29.367Z,25.70
2023-02-03T10:47:57.339Z,27.10
2023-02-03T10:50:31.845Z,25.07
2023-02-03T10:53:21.922Z,25.07
2023-02-03T10:55:51.602Z,24.87
2023-02-03T10:58:23.873Z,25.73
2023-02-03T11:00:56.798Z,24.90
2023-02-03T11:03:26.689Z,24.37
2023-02-03T11:06:12.087Z,25.80
2023-02-03T11:08:42.161Z,26.13
2023-02-03T11:11:11.744Z,26.43
2023-02-03T11:13:41.090Z,27.17
2023-02-03T11:16:14.871Z,27.67
2023-02-03T11:18:47.629Z,28.10
2023-02-03T11:21:18.262Z,27.27
2023-02-03T11:24:04.312Z,29.50
2023-02-03T11:26:34.911Z,28.40
2023-02-03T11:29:06.296Z,28.17
2023-02-03T11:31:38.384Z,29.57
2023-02-03T11:34:15.512Z,30.90
2023-02-03T11:36:44.784Z,32.53
2023-02-03T11:39:18.886Z,31.40
2023-02-03T11:41:47.427Z,31.50
2023-02-03T11:44:21.175Z,32.13
2023-02-03T11:46:50.922Z,33.20
2023-02-03T11:49:45.318Z,34.73
2023-02-03T11:52:33.818Z,32.60
2023-02-03T11:55:08.060Z,32.80
2023-02-03T11:57:42.979Z,37.87
2023-02-03T12:00:20.902Z,35.83
2023-02-03T12:03:05.855Z,37.27
2023-02-03T12:05:41.073Z,37.23
2023-02-03T12:08:17.206Z,35.23
2023-02-03T12:10:53.701Z,34.67
2023-02-03T12:13:31.554Z,35.73
2023-02-03T12:16:13.497Z,36.10
2023-02-03T12:18:53.301Z,35.73
2023-02-03T12:21:33.533Z,37.50
2023-02-03T12:24:05.841Z,38.23
2023-02-03T12:26:40.143Z,36.80
2023-02-03T12:29:11.934Z,40.60
2023-02-03T12:31:44.538Z,40.90
2023-02-03T12:34:18.686Z,38.80
2023-02-03T12:36:49.955Z,38.63
2023-02-03T12:39:22.183Z,38.57
2023-02-03T12:41:53.584Z,38.80
2023-02-03T12:44:24.180Z,38.97
2023-02-03T12:46:58.341Z,40.50
2023-02-03T12:49:32.625Z,36.07
2023-02-03T12:52:04.717Z,37.30
2023-02-03T12:54:38.831Z,37.03
2023-02-03T12:57:15.485Z,40.37
2023-02-03T12:59:45.302Z,38.53
2023-02-03T13:02:18.482Z,36.63
2023-02-03T13:04:49.185Z,37.37
2023-02-03T13:07:22.611Z,42.43
2023-02-03T13:09:55.878Z,38.80
2023-02-03T13:12:29.622Z,39.63
2023-02-03T13:15:04.078Z,41.40
2023-02-03T13:17:39.321Z,42.20
2023-02-03T13:20:15.341Z,41.73
2023-02-03T13:22:43.002Z,40.10
2023-02-03T13:25:18.554Z,40.90
2023-02-03T13:27:48.098Z,38.30
2023-02-03T13:30:32.105Z,39.13
2023-02-03T13:33:30.405Z,38.57
2023-02-03T13:36:09.452Z,38.47
2023-02-03T13:41:18.942Z,38.10
2023-02-03T13:43:48.238Z,38.10
2023-02-03T13:46:23.360Z,40.23
2023-02-03T13:48:52.892Z,38.17
2023-02-03T13:51:24.018Z,40.17
2023-02-03T13:53:53.590Z,36.17
2023-02-03T13:56:23.134Z,35.90
2023-02-03T13:59:02.782Z,37.30
2023-02-03T14:01:34.531Z,35.60
2023-02-03T14:04:04.485Z,36.07
2023-02-03T14:07:00.873Z,35.50
2023-02-03T14:10:09.664Z,35.93
2023-02-03T14:12:39.892Z,34.77
2023-02-03T14:15:36.562Z,36.60
2023-02-03T14:18:08.187Z,33.93
2023-02-03T14:20:44.715Z,35.90
2023-02-03T14:23:19.127Z,36.50
2023-02-03T14:25:48.384Z,35.63
2023-02-03T14:28:18.282Z,36.77
2023-02-03T14:31:19.862Z,37.17
2023-02-03T14:34:13.830Z,35.27
2023-02-03T14:36:45.787Z,34.93
2023-02-03T14:40:00.973Z,36.30
2023-02-03T14:43:22.382Z,33.80
2023-02-03T14:46:19.255Z,33.80
2023-02-03T14:48:58.460Z,32.60
2023-02-03T14:51:38.752Z,33.00
2023-02-03T14:54:23.162Z,35.23
2023-02-03T14:57:18.323Z,34.10
2023-02-03T14:59:48.799Z,35.17
2023-02-03T15:02:20.105Z,33.87
2023-02-03T15:04:50.329Z,35.93
2023-02-03T15:07:44.754Z,35.73
2023-02-03T15:10:20.611Z,32.27
2023-02-03T15:12:49.898Z,33.40
2023-02-03T15:15:22.946Z,33.77
2023-02-03T15:17:52.538Z,34.13
2023-02-03T15:20:34.599Z,34.13
2023-02-03T15:23:02.951Z,32.77
2023-02-03T15:25:33.130Z,33.10
2023-02-03T15:28:16.416Z,34.80
2023-02-03T15:30:45.503Z,34.63
2023-02-03T15:33:16.733Z,34.43
2023-02-03T15:35:46.547Z,33.27
2023-02-03T15:38:16.249Z,34.90
2023-02-03T15:40:46.726Z,34.97
2023-02-03T15:43:18.598Z,35.87
2023-02-03T15:45:56.572Z,35.33
2023-02-03T15:48:30.680Z,35.97
2023-02-03T15:51:01.191Z,37.40
2023-02-03T15:53:45.125Z,36.63
2023-02-03T15:56:21.412Z,36.63
2023-02-03T15:58:49.801Z,37.13
2023-02-03T16:01:21.327Z,37.20
2023-02-03T16:03:52.493Z,38.20
2023-02-03T16:06:25.365Z,37.33
2023-02-03T16:08:53.334Z,41.20
2023-02-03T16:11:31.005Z,39.00
2023-02-03T16:14:00.846Z,38.17
2023-02-03T16:16:31.261Z,39.63
2023-02-03T16:19:01.471Z,38.20
2023-02-03T16:21:35.933Z,39.33
2023-02-03T16:24:05.176Z,40.77
2023-02-03T16:26:36.610Z,38.53
2023-02-03T16:29:33.133Z,40.03
2023-02-03T16:32:18.790Z,39.10
2023-02-03T16:35:04.727Z,39.93
2023-02-03T16:37:51.549Z,40.30
2023-02-03T16:40:40.514Z,40.40
2023-02-03T16:43:30.234Z,39.67
2023-02-03T16:46:16.605Z,39.37
2023-02-03T16:49:02.033Z,38.33
2023-02-03T16:51:35.998Z,39.00
2023-02-03T16:54:03.653Z,41.13
2023-02-03T16:56:31.304Z,42.53
2023-02-03T16:59:00.343Z,42.20
2023-02-03T17:01:28.038Z,42.00
2023-02-03T17:03:55.777Z,42.70
2023-02-03T17:06:23.427Z,41.90
2023-02-03T17:08:51.936Z,44.73
2023-02-03T17:11:21.082Z,46.90
2023-02-03T17:13:49.187Z,47.07
2023-02-03T17:16:20.262Z,46.43
2023-02-03T17:18:48.152Z,47.17
2023-02-03T17:21:18.500Z,50.10
2023-02-03T17:23:46.276Z,48.53
2023-02-03T17:26:13.996Z,45.80
2023-02-03T17:28:43.226Z,45.47
2023-02-03T17:31:15.125Z,47.13
2023-02-03T17:33:44.423Z,44.00
2023-02-03T17:36:14.940Z,44.00
2023-02-03T17:55:19.430Z,41.07
2023-02-03T17:57:47.125Z,42.10
2023-02-03T18:00:15.488Z,43.60
2023-02-03T18:02:43.630Z,43.37
2023-02-03T18:05:12.698Z,43.07
2023-02-03T18:07:40.368Z,43.83
2023-02-03T18:10:08.886Z,43.00
2023-02-03T18:12:36.593Z,43.07
2023-02-03T18:15:04.613Z,43.73
2023-02-03T18:17:32.274Z,44.27
2023-02-03T18:20:00.635Z,44.87
2023-02-03T18:22:29.773Z,44.90
2023-02-03T18:24:57.493Z,43.47
2023-02-03T18:27:25.184Z,43.47
2023-02-03T18:29:52.889Z,45.60
2023-02-03T18:32:21.010Z,45.23
2023-02-03T18:34:48.786Z,44.20
2023-02-03T18:37:16.448Z,45.87
2023-02-03T18:39:45.538Z,45.67
2023-02-03T18:42:13.182Z,45.13
2023-02-03T18:44:41.349Z,46.43
2023-02-03T18:47:09.044Z,44.63
2023-02-03T18:49:37.589Z,46.30
2023-02-03T18:52:05.990Z,44.80
2023-02-03T18:54:33.722Z,44.10
2023-02-03T18:57:04.524Z,46.90
2023-02-03T18:59:32.278Z,45.20
2023-02-03T19:02:00.141Z,45.50
2023-02-03T19:04:27.903Z,45.67
2023-02-03T19:06:55.616Z,46.93
2023-02-03T19:09:23.770Z,48.37
2023-02-03T19:11:51.602Z,47.43
2023-02-03T19:14:20.641Z,48.10
2023-02-03T19:16:50.345Z,47.63
2023-02-03T19:19:18.061Z,48.17
2023-02-03T19:21:45.733Z,45.73
2023-02-03T19:24:14.889Z,47.93
2023-02-03T19:26:42.730Z,47.80
2023-02-03T19:29:11.399Z,48.30
2023-02-03T19:31:40.595Z,48.40
2023-02-03T19:34:08.591Z,49.23
2023-02-03T19:36:36.262Z,50.77
2023-02-03T19:39:11.290Z,49.57
2023-02-03T19:41:38.923Z,48.27
2023-02-03T19:44:08.000Z,49.17
2023-02-03T19:46:37.654Z,50.53
2023-02-03T19:49:10.827Z,51.60
2023-02-03T19:51:38.886Z,51.10
2023-02-03T19:54:07.070Z,54.23
2023-02-03T19:56:34.763Z,52.63
2023-02-03T19:59:03.273Z,55.63
2023-02-03T20:01:32.653Z,51.57
2023-02-03T20:04:00.350Z,53.37
2023-02-03T20:06:29.640Z,47.90
2023-02-03T20:08:57.279Z,50.07
2023-02-03T20:11:25.013Z,46.93
2023-02-03T20:13:52.948Z,48.00
2023-02-03T20:16:20.654Z,46.07
2023-02-03T20:18:49.354Z,47.47
2023-02-03T20:21:17.023Z,49.07
2023-02-03T20:23:46.053Z,45.30
2023-02-03T20:26:14.349Z,47.20
2023-02-03T20:28:42.116Z,47.23
2023-02-03T20:31:09.932Z,48.23
2023-02-03T20:33:37.625Z,46.73
2023-02-03T20:36:05.937Z,46.63
2023-02-03T20:38:33.633Z,47.43
2023-02-03T20:41:02.946Z,47.77
2023-02-03T20:43:31.816Z,49.77
2023-02-03T20:45:59.542Z,49.47
2023-02-03T20:48:27.470Z,49.17
2023-02-03T20:50:55.143Z,49.37
2023-02-03T20:53:24.607Z,47.73
2023-02-03T20:55:53.060Z,49.40
2023-02-03T20:58:25.028Z,47.13
2023-02-03T21:00:53.272Z,48.43
2023-02-03T21:03:39.126Z,49.43
2023-02-03T21:06:13.669Z,47.43
2023-02-03T21:08:41.395Z,48.73
2023-02-03T21:11:11.854Z,46.87
2023-02-03T21:13:41.420Z,48.40
2023-02-03T21:16:16.323Z,48.70
2023-02-03T21:18:48.548Z,47.33
2023-02-03T21:21:17.439Z,48.37
2023-02-03T21:23:47.485Z,46.80
2023-02-03T21:26:20.720Z,47.93
2023-02-03T21:28:51.686Z,45.10
2023-02-03T21:31:26.315Z,47.60
2023-02-03T21:33:54.918Z,46.63
2023-02-03T21:36:23.942Z,45.63
2023-02-03T21:38:53.508Z,45.30
2023-02-03T21:41:22.416Z,46.30
2023-02-03T21:43:54.897Z,46.40
2023-02-03T21:46:26.564Z,45.73
2023-02-03T21:48:55.235Z,46.63
2023-02-03T21:51:27.950Z,46.63
2023-02-03T21:53:56.995Z,46.50
2023-02-03T21:56:27.126Z,46.17
2023-02-03T21:58:58.988Z,45.63
2023-02-03T22:01:28.243Z,44.33
2023-02-03T22:03:58.887Z,44.10
2023-02-03T22:06:28.034Z,45.10
2023-02-03T22:08:57.798Z,43.27
2023-02-03T22:11:26.538Z,42.53
2023-02-03T22:13:54.352Z,42.73
2023-02-03T22:16:23.358Z,43.93
2023-02-03T22:18:51.464Z,43.93
2023-02-03T22:21:19.574Z,44.50
2023-02-03T22:23:47.939Z,44.70
2023-02-03T22:26:17.509Z,44.57
2023-02-03T22:28:46.034Z,44.70
2023-02-03T22:31:14.170Z,44.80
2023-02-03T22:33:43.933Z,44.63
2023-02-03T22:36:12.339Z,47.17
2023-02-03T22:38:41.007Z,48.33
2023-02-03T22:41:08.896Z,48.37
2023-02-03T22:43:36.587Z,47.67
2023-02-03T22:46:06.785Z,48.77
2023-02-03T22:48:34.614Z,46.77
2023-02-03T22:51:03.842Z,46.70
2023-02-03T22:53:31.522Z,48.03
2023-02-03T22:55:59.262Z,46.33
2023-02-03T22:58:27.023Z,46.07
2023-02-03T23:00:54.764Z,48.07
2023-02-03T23:03:22.533Z,48.37
2023-02-03T23:05:50.193Z,50.07
2023-02-03T23:08:19.262Z,51.00
2023-02-03T23:10:48.237Z,52.37
2023-02-03T23:13:15.914Z,50.50
2023-02-03T23:15:43.631Z,51.60
2023-02-03T23:18:11.274Z,50.47
2023-02-03T23:20:39.219Z,51.67
2023-02-03T23:23:06.928Z,50.43
2023-02-03T23:25:36.221Z,51.03
2023-02-03T23:28:04.022Z,54.10
2023-02-03T23:30:32.006Z,53.70
2023-02-03T23:32:59.907Z,54.80
2023-02-03T23:35:45.068Z,55.43
2023-02-03T23:38:12.789Z,53.73
2023-02-03T23:40:41.850Z,57.50
2023-02-03T23:43:09.531Z,59.90
2023-02-03T23:45:37.240Z,58.83
2023-02-03T23:48:05.298Z,57.07
2023-02-03T23:50:33.222Z,56.60
2023-02-03T23:53:01.183Z,60.40
2023-02-03T23:55:29.303Z,60.70
2023-02-03T23:57:58.376Z,59.63
